createdAt,value
2024-04-08T11:18:16.819Z,5.18
2024-04-08T11:20:44.333Z,4.10
2024-04-08T11:25:47.758Z,4.60
2024-04-08T11:28:21.750Z,3.92
2024-04-08T11:30:49.863Z,3.85
2024-04-08T11:33:17.396Z,3.97
2024-04-08T11:35:51.881Z,4.18
2024-04-08T11:38:30.504Z,4.60
2024-04-08T11:41:11.075Z,3.83
2024-04-08T11:43:39.268Z,4.18
2024-04-08T11:46:20.879Z,4.05
2024-04-08T11:48:48.392Z,4.72
2024-04-08T11:53:49.931Z,4.00
2024-04-08T11:56:17.610Z,4.07
2024-04-08T11:58:45.002Z,5.32
2024-04-08T12:03:46.557Z,3.95
2024-04-08T12:08:47.948Z,4.70
2024-04-08T12:11:15.416Z,3.72
2024-04-08T12:16:23.567Z,4.63
2024-04-08T12:18:57.981Z,4.28
2024-04-08T12:21:25.479Z,4.00
2024-04-08T12:23:55.277Z,4.70
2024-04-08T12:26:28.974Z,4.38
2024-04-08T12:28:57.107Z,3.65
2024-04-08T12:31:24.564Z,3.85
2024-04-08T12:36:29.338Z,3.83
2024-04-08T12:39:04.946Z,4.85
2024-04-08T12:41:34.407Z,3.55
2024-04-08T12:44:03.032Z,4.30
2024-04-08T12:46:44.028Z,3.75
2024-04-08T12:49:11.801Z,3.80
2024-04-08T12:51:41.335Z,3.67
2024-04-08T12:54:17.683Z,4.32
2024-04-08T12:56:45.354Z,3.83
2024-04-08T12:59:12.734Z,4.07
2024-04-08T13:01:46.970Z,4.07
2024-04-08T13:04:14.536Z,3.90
2024-04-08T13:06:41.945Z,4.00
2024-04-08T13:09:16.010Z,4.43
2024-04-08T13:11:43.635Z,3.78
2024-04-08T13:16:51.852Z,3.67
2024-04-08T13:19:32.090Z,3.65
2024-04-08T13:21:59.508Z,4.55
2024-04-08T13:24:26.957Z,3.80
2024-04-08T13:29:28.239Z,4.05
2024-04-08T13:32:01.883Z,4.22
2024-04-08T13:34:29.487Z,4.65
2024-04-08T13:36:57.065Z,4.20
2024-04-08T13:41:58.676Z,4.63
2024-04-08T13:47:06.882Z,3.88
2024-04-08T13:49:43.714Z,4.93
2024-04-08T13:52:12.720Z,3.80
2024-04-08T13:57:16.352Z,3.85
2024-04-08T14:02:19.392Z,3.50
2024-04-08T14:04:46.869Z,3.90
2024-04-08T14:09:48.257Z,4.75
2024-04-08T14:14:49.863Z,3.05
2024-04-08T14:17:23.827Z,3.45
2024-04-08T14:19:57.892Z,3.58
2024-04-08T14:22:25.482Z,3.88
2024-04-08T14:24:52.972Z,3.25
2024-04-08T14:30:00.420Z,3.22
2024-04-08T14:32:34.974Z,3.40
2024-04-08T14:35:02.432Z,3.70
2024-04-08T14:40:18.947Z,4.00
2024-04-08T14:42:46.401Z,3.50
2024-04-08T14:45:28.060Z,4.13
2024-04-08T14:47:55.467Z,3.50
2024-04-08T14:52:57.399Z,3.63
2024-04-08T14:55:25.330Z,3.22
2024-04-08T14:58:00.326Z,3.83
2024-04-08T15:00:27.942Z,3.88
2024-04-08T15:03:02.114Z,3.50
2024-04-08T15:05:29.768Z,2.70
2024-04-08T15:07:57.433Z,3.47
2024-04-08T15:10:31.866Z,3.03
2024-04-08T15:12:59.259Z,2.80
2024-04-08T15:15:34.030Z,2.90
2024-04-08T15:18:07.942Z,3.00
2024-04-08T15:20:42.001Z,3.13
2024-04-08T15:23:09.520Z,3.10
2024-04-08T15:25:37.108Z,3.20
2024-04-08T15:30:38.636Z,2.75
2024-04-08T15:35:49.171Z,3.70
2024-04-08T15:38:16.496Z,3.35
2024-04-08T15:40:45.015Z,3.17
2024-04-08T15:43:19.105Z,2.90
2024-04-08T15:45:59.088Z,3.55
2024-04-08T15:48:40.060Z,3.28
2024-04-08T15:51:27.684Z,3.28
2024-04-08T15:54:21.878Z,3.30
2024-04-08T15:57:09.256Z,3.10
2024-04-08T16:00:02.912Z,3.55
2024-04-08T16:02:50.365Z,3.30
2024-04-08T16:05:45.021Z,3.30
2024-04-08T16:08:32.355Z,3.45
2024-04-08T16:11:26.128Z,3.25
2024-04-08T16:14:13.434Z,3.85
2024-04-08T16:17:10.314Z,3.00
2024-04-08T16:19:58.764Z,3.78
2024-04-08T16:23:09.080Z,3.50
2024-04-08T16:26:06.763Z,3.80
2024-04-08T16:29:04.384Z,2.80
2024-04-08T16:31:54.790Z,3.40
2024-04-08T16:34:48.892Z,3.45
2024-04-08T16:37:43.217Z,3.42
2024-04-08T16:40:36.845Z,3.40
2024-04-08T16:43:30.823Z,3.88
2024-04-08T16:46:31.875Z,3.20
2024-04-08T16:49:19.246Z,4.65
2024-04-08T16:52:13.008Z,4.00
2024-04-08T16:55:00.239Z,4.20
2024-04-08T16:57:53.907Z,3.72
2024-04-08T17:00:41.261Z,4.20
2024-04-08T17:03:38.330Z,4.35
2024-04-08T17:06:26.403Z,4.70
2024-04-08T17:09:19.887Z,4.78
2024-04-08T17:12:07.168Z,4.10
2024-04-08T17:15:02.270Z,4.43
2024-04-08T17:17:50.178Z,3.55
2024-04-08T17:20:44.079Z,4.32
2024-04-08T17:23:31.423Z,4.10
2024-04-08T17:26:25.980Z,4.57
2024-04-08T17:29:20.278Z,4.65
2024-04-08T17:32:15.420Z,4.20
2024-04-08T17:35:09.814Z,4.10
2024-04-08T17:38:13.107Z,4.40
2024-04-08T17:41:00.413Z,4.78
2024-04-08T17:44:01.001Z,4.80
2024-04-08T17:47:00.804Z,4.00
2024-04-08T17:49:55.109Z,4.03
2024-04-08T17:52:42.351Z,4.63
2024-04-08T17:55:35.929Z,5.10
2024-04-08T17:58:23.156Z,4.72
2024-04-08T18:01:17.134Z,5.25
2024-04-08T18:04:11.020Z,4.60
2024-04-08T18:07:04.998Z,4.10
2024-04-08T18:09:52.244Z,4.18
2024-04-08T18:12:45.930Z,4.53
2024-04-08T18:15:39.850Z,5.03
2024-04-08T18:18:27.514Z,5.30
2024-04-08T18:21:31.121Z,4.25
2024-04-08T18:24:18.612Z,5.25
2024-04-08T18:27:13.015Z,4.25
2024-04-08T18:30:02.528Z,4.50
2024-04-08T18:32:57.028Z,4.57
2024-04-08T18:35:51.980Z,4.50
2024-04-08T18:38:53.966Z,4.40
2024-04-08T18:41:41.509Z,4.53
2024-04-08T18:44:34.868Z,4.10
2024-04-08T18:47:29.047Z,4.00
2024-04-08T18:50:28.878Z,4.65
2024-04-08T18:53:16.227Z,3.67
2024-04-08T18:56:09.850Z,5.05
2024-04-08T18:58:57.308Z,5.45
2024-04-08T19:01:50.876Z,5.55
2024-04-08T19:04:45.138Z,5.10
2024-04-08T19:07:32.480Z,4.57
2024-04-08T19:10:27.017Z,4.63
2024-04-08T19:13:14.330Z,5.05
2024-04-08T19:16:07.953Z,4.13
2024-04-08T19:18:56.255Z,5.15
2024-04-08T19:21:50.031Z,4.65
2024-04-08T19:24:37.266Z,4.95
2024-04-08T19:27:31.108Z,5.60
2024-04-08T19:30:18.451Z,4.55
2024-04-08T19:33:12.076Z,4.97
2024-04-08T19:36:05.977Z,4.88
2024-04-08T19:39:00.012Z,4.22
2024-04-08T19:41:47.312Z,4.88
2024-04-08T19:44:40.978Z,4.60
2024-04-08T19:47:28.887Z,3.63
2024-04-08T19:50:30.207Z,5.15
2024-04-08T19:53:23.880Z,4.57
2024-04-08T19:55:51.290Z,4.65
2024-04-08T19:58:18.650Z,5.20
2024-04-08T20:00:53.088Z,4.22
2024-04-08T20:03:20.555Z,5.13
2024-04-08T20:08:22.191Z,4.50
2024-04-08T20:10:55.955Z,5.18
2024-04-08T20:13:30.212Z,5.45
2024-04-08T20:16:03.908Z,5.07
2024-04-08T20:18:31.327Z,4.30
2024-04-08T20:23:34.037Z,4.38
2024-04-08T20:26:07.876Z,4.13
2024-04-08T20:28:35.686Z,4.00
2024-04-08T20:31:03.760Z,4.70
2024-04-08T20:33:38.039Z,4.78
2024-04-08T20:36:26.079Z,4.57
2024-04-08T20:38:53.759Z,5.30
2024-04-08T20:43:54.931Z,5.35
2024-04-08T20:46:22.205Z,5.32
2024-04-08T20:49:02.107Z,4.50
2024-04-08T20:51:34.209Z,4.50
2024-04-08T20:54:12.090Z,4.93
2024-04-08T20:56:39.368Z,4.55
2024-04-08T20:59:06.707Z,5.80
2024-04-08T21:01:40.955Z,4.53
2024-04-08T21:04:08.404Z,4.70
2024-04-08T21:09:09.745Z,5.70
2024-04-08T21:14:12.414Z,5.18
2024-04-08T21:16:39.881Z,5.40
2024-04-08T21:19:14.086Z,5.30
2024-04-08T21:21:41.598Z,4.72
2024-04-08T21:26:44.143Z,4.68
2024-04-08T21:29:11.527Z,4.90
2024-04-08T21:31:45.069Z,4.68
2024-04-08T21:34:12.582Z,4.85
2024-04-08T21:39:33.956Z,4.85
2024-04-08T21:42:01.925Z,5.10
2024-04-08T21:44:35.903Z,4.72
2024-04-08T21:47:03.425Z,4.80
2024-04-08T21:49:43.277Z,4.30
2024-04-08T21:52:10.625Z,4.70
2024-04-08T21:54:38.093Z,4.50
2024-04-08T21:59:39.344Z,4.68
2024-04-08T22:02:06.726Z,4.30
2024-04-08T22:04:41.027Z,4.22
2024-04-08T22:07:08.874Z,4.93
2024-04-08T22:09:36.411Z,4.38
2024-04-08T22:14:37.394Z,4.90
2024-04-08T22:17:11.026Z,4.72
2024-04-08T22:19:38.337Z,4.38
2024-04-08T22:22:05.717Z,4.15
2024-04-08T22:24:40.062Z,4.45
2024-04-08T22:27:07.597Z,5.43
2024-04-08T22:32:08.803Z,4.47
2024-04-08T22:34:43.542Z,5.18
2024-04-08T22:37:17.948Z,5.03
2024-04-08T22:39:52.137Z,4.78
2024-04-08T22:42:25.914Z,4.93
2024-04-08T22:44:53.300Z,4.32
2024-04-08T22:47:27.042Z,4.90
2024-04-08T22:50:00.892Z,4.93
2024-04-08T22:52:34.953Z,5.15
2024-04-08T22:55:02.264Z,4.78
2024-04-08T22:57:36.071Z,4.85
2024-04-08T23:00:04.206Z,4.43
2024-04-08T23:02:31.678Z,4.82
2024-04-08T23:05:06.232Z,4.30
2024-04-08T23:07:33.831Z,4.40
2024-04-08T23:10:04.764Z,4.78
2024-04-08T23:12:39.086Z,5.05
2024-04-08T23:15:26.650Z,5.85
2024-04-08T23:18:01.955Z,5.65
2024-04-08T23:20:32.918Z,4.63
2024-04-08T23:23:00.182Z,4.55
2024-04-08T23:25:34.008Z,4.75
2024-04-08T23:28:01.456Z,5.90
2024-04-08T23:33:03.391Z,6.43
2024-04-08T23:35:36.980Z,7.05
2024-04-08T23:38:17.014Z,7.63
2024-04-08T23:40:44.737Z,5.50
2024-04-08T23:43:12.000Z,6.18
2024-04-08T23:45:46.065Z,4.80
2024-04-08T23:48:13.549Z,4.50
2024-04-08T23:53:21.031Z,5.03
2024-04-08T23:55:54.999Z,4.78
2024-04-08T23:58:22.415Z,5.03
